sensor_id;sensor_type;location;lat;lon;timestamp;temperature;humidity
1546;DHT22;766;51.502;9.752;2022-09-28T00:01:14;7.10;99.90
1546;DHT22;766;51.502;9.752;2022-09-28T00:03:44;7.00;99.90
1546;DHT22;766;51.502;9.752;2022-09-28T00:06:14;7.00;99.90
1546;DHT22;766;51.502;9.752;2022-09-28T00:08:43;7.00;99.90
1546;DHT22;766;51.502;9.752;2022-09-28T00:11:13;7.00;99.90
1546;DHT22;766;51.502;9.752;2022-09-28T00:13:42;7.10;99.90
1546;DHT22;766;51.502;9.752;2022-09-28T00:16:13;7.20;99.90
1546;DHT22;766;51.502;9.752;2022-09-28T00:18:43;7.10;99.90
1546;DHT22;766;51.502;9.752;2022-09-28T00:21:13;7.20;99.90
1546;DHT22;766;51.502;9.752;2022-09-28T00:23:42;7.20;99.90
1546;DHT22;766;51.502;9.752;2022-09-28T00:26:26;7.20;99.90
1546;DHT22;766;51.502;9.752;2022-09-28T00:28:56;7.20;99.90
1546;DHT22;766;51.502;9.752;2022-09-28T00:31:26;7.10;99.90
1546;DHT22;766;51.502;9.752;2022-09-28T00:33:56;7.20;99.90
1546;DHT22;766;51.502;9.752;2022-09-28T00:36:24;7.20;99.90
1546;DHT22;766;51.502;9.752;2022-09-28T00:38:54;7.20;99.90
1546;DHT22;766;51.502;9.752;2022-09-28T00:41:26;7.10;99.90
1546;DHT22;766;51.502;9.752;2022-09-28T00:47:01;7.00;99.90
1546;DHT22;766;51.502;9.752;2022-09-28T00:49:34;7.10;99.90
1546;DHT22;766;51.502;9.752;2022-09-28T00:52:13;7.00;99.90
1546;DHT22;766;51.502;9.752;2022-09-28T00:54:46;7.00;99.90
1546;DHT22;766;51.502;9.752;2022-09-28T00:57:28;7.00;99.90
1546;DHT22;766;51.502;9.752;2022-09-28T00:59:58;7.10;99.90
1546;DHT22;766;51.502;9.752;2022-09-28T01:02:34;7.10;99.90
1546;DHT22;766;51.502;9.752;2022-09-28T01:05:08;7.10;99.90
1546;DHT22;766;51.502;9.752;2022-09-28T01:07:37;7.10;99.90
1546;DHT22;766;51.502;9.752;2022-09-28T01:10:07;7.10;99.90
1546;DHT22;766;51.502;9.752;2022-09-28T01:12:36;7.20;99.90
1546;DHT22;766;51.502;9.752;2022-09-28T01:15:05;7.20;99.90
1546;DHT22;766;51.502;9.752;2022-09-28T01:17:42;7.20;99.90
1546;DHT22;766;51.502;9.752;2022-09-28T01:20:32;7.20;99.90
1546;DHT22;766;51.502;9.752;2022-09-28T01:26:53;7.10;99.90
1546;DHT22;766;51.502;9.752;2022-09-28T01:29:43;7.10;99.90
1546;DHT22;766;51.502;9.752;2022-09-28T01:32:26;7.10;99.90
1546;DHT22;766;51.502;9.752;2022-09-28T01:35:00;7.10;99.90
1546;DHT22;766;51.502;9.752;2022-09-28T01:37:36;7.10;99.90
1546;DHT22;766;51.502;9.752;2022-09-28T01:40:09;7.20;99.90
1546;DHT22;766;51.502;9.752;2022-09-28T01:42:43;7.20;99.90
1546;DHT22;766;51.502;9.752;2022-09-28T01:45:17;7.20;99.90
1546;DHT22;766;51.502;9.752;2022-09-28T08:12:18;7.90;99.90
1546;DHT22;766;51.502;9.752;2022-09-28T08:14:47;8.00;99.90
1546;DHT22;766;51.502;9.752;2022-09-28T08:17:17;8.30;99.90
1546;DHT22;766;51.502;9.752;2022-09-28T08:19:45;8.80;99.90
1546;DHT22;766;51.502;9.752;2022-09-28T08:22:31;9.30;99.90
1546;DHT22;766;51.502;9.752;2022-09-28T08:24:59;9.50;99.90
1546;DHT22;766;51.502;9.752;2022-09-28T08:27:29;9.60;99.90
1546;DHT22;766;51.502;9.752;2022-09-28T08:29:57;9.60;99.90
1546;DHT22;766;51.502;9.752;2022-09-28T08:32:25;9.40;99.90
1546;DHT22;766;51.502;9.752;2022-09-28T08:34:58;9.30;99.90
1546;DHT22;766;51.502;9.752;2022-09-28T08:37:26;9.20;99.90
1546;DHT22;766;51.502;9.752;2022-09-28T08:39:54;9.10;99.90
1546;DHT22;766;51.502;9.752;2022-09-28T08:42:32;8.90;99.90
1546;DHT22;766;51.502;9.752;2022-09-28T08:45:07;8.80;99.90
1546;DHT22;766;51.502;9.752;2022-09-28T08:47:46;8.70;99.90
1546;DHT22;766;51.502;9.752;2022-09-28T08:50:47;8.70;99.90
1546;DHT22;766;51.502;9.752;2022-09-28T08:53:34;8.80;99.90
1546;DHT22;766;51.502;9.752;2022-09-28T08:56:09;8.90;99.90
1546;DHT22;766;51.502;9.752;2022-09-28T08:58:43;9.00;99.90
1546;DHT22;766;51.502;9.752;2022-09-28T09:01:17;9.30;99.90
1546;DHT22;766;51.502;9.752;2022-09-28T09:03:48;9.30;99.90
1546;DHT22;766;51.502;9.752;2022-09-28T09:06:23;9.20;99.90
1546;DHT22;766;51.502;9.752;2022-09-28T09:09:02;9.30;99.90
1546;DHT22;766;51.502;9.752;2022-09-28T09:11:46;9.50;99.90
1546;DHT22;766;51.502;9.752;2022-09-28T09:17:17;9.40;99.90
1546;DHT22;766;51.502;9.752;2022-09-28T09:19:52;9.70;99.90
1546;DHT22;766;51.502;9.752;2022-09-28T09:22:32;9.70;99.90
1546;DHT22;766;51.502;9.752;2022-09-28T09:25:08;9.70;99.90
1546;DHT22;766;51.502;9.752;2022-09-28T09:27:56;9.70;99.90
1546;DHT22;766;51.502;9.752;2022-09-28T09:30:31;10.00;99.90
1546;DHT22;766;51.502;9.752;2022-09-28T09:33:21;10.10;99.90
1546;DHT22;766;51.502;9.752;2022-09-28T09:36:09;10.00;99.90
1546;DHT22;766;51.502;9.752;2022-09-28T09:38:53;10.10;99.90
1546;DHT22;766;51.502;9.752;2022-09-28T09:41:33;10.10;99.90
1546;DHT22;766;51.502;9.752;2022-09-28T09:44:23;10.00;99.90
1546;DHT22;766;51.502;9.752;2022-09-28T09:47:00;9.90;99.90
1546;DHT22;766;51.502;9.752;2022-09-28T09:49:35;9.90;99.90
1546;DHT22;766;51.502;9.752;2022-09-28T09:52:11;9.90;99.90
1546;DHT22;766;51.502;9.752;2022-09-28T09:54:44;9.90;99.90
1546;DHT22;766;51.502;9.752;2022-09-28T09:57:22;9.80;99.90
1546;DHT22;766;51.502;9.752;2022-09-28T09:59:52;9.70;99.90
1546;DHT22;766;51.502;9.752;2022-09-28T10:02:26;9.80;99.90
1546;DHT22;766;51.502;9.752;2022-09-28T10:04:57;9.80;99.90
1546;DHT22;766;51.502;9.752;2022-09-28T10:07:33;9.80;99.90
1546;DHT22;766;51.502;9.752;2022-09-28T10:10:13;9.80;99.90
1546;DHT22;766;51.502;9.752;2022-09-28T10:12:44;9.70;99.90
1546;DHT22;766;51.502;9.752;2022-09-28T10:15:19;9.80;99.90
1546;DHT22;766;51.502;9.752;2022-09-28T10:17:51;10.00;99.90
1546;DHT22;766;51.502;9.752;2022-09-28T10:20:20;10.10;99.90
1546;DHT22;766;51.502;9.752;2022-09-28T10:22:50;10.30;99.90
1546;DHT22;766;51.502;9.752;2022-09-28T10:25:19;10.40;99.90
1546;DHT22;766;51.502;9.752;2022-09-28T10:27:48;10.40;99.90
1546;DHT22;766;51.502;9.752;2022-09-28T10:30:20;10.50;99.90
1546;DHT22;766;51.502;9.752;2022-09-28T10:32:52;10.50;99.90
1546;DHT22;766;51.502;9.752;2022-09-28T10:35:27;10.70;99.90
1546;DHT22;766;51.502;9.752;2022-09-28T10:37:57;10.60;99.90
1546;DHT22;766;51.502;9.752;2022-09-28T10:40:41;10.60;99.90
1546;DHT22;766;51.502;9.752;2022-09-28T10:43:20;10.50;99.90
1546;DHT22;766;51.502;9.752;2022-09-28T10:45:59;10.50;99.90
1546;DHT22;766;51.502;9.752;2022-09-28T10:48:44;10.30;99.90
1546;DHT22;766;51.502;9.752;2022-09-28T10:51:15;10.20;99.90
1546;DHT22;766;51.502;9.752;2022-09-28T10:53:57;10.20;99.90
1546;DHT22;766;51.502;9.752;2022-09-28T10:56:28;10.20;99.90
1546;DHT22;766;51.502;9.752;2022-09-28T10:58:57;10.20;99.90
1546;DHT22;766;51.502;9.752;2022-09-28T11:01:30;10.40;99.90
1546;DHT22;766;51.502;9.752;2022-09-28T11:04:04;10.70;99.90
1546;DHT22;766;51.502;9.752;2022-09-28T11:06:37;10.60;99.90
1546;DHT22;766;51.502;9.752;2022-09-28T11:09:22;10.40;99.90
1546;DHT22;766;51.502;9.752;2022-09-28T11:11:57;10.40;99.90
1546;DHT22;766;51.502;9.752;2022-09-28T11:14:31;10.50;99.90
1546;DHT22;766;51.502;9.752;2022-09-28T11:17:14;10.60;99.90
1546;DHT22;766;51.502;9.752;2022-09-28T11:19:45;11.00;99.90
1546;DHT22;766;51.502;9.752;2022-09-28T11:22:26;11.00;99.90
1546;DHT22;766;51.502;9.752;2022-09-28T11:25:20;10.90;99.90
1546;DHT22;766;51.502;9.752;2022-09-28T11:27:59;10.80;99.90
1546;DHT22;766;51.502;9.752;2022-09-28T11:30:29;10.70;99.90
1546;DHT22;766;51.502;9.752;2022-09-28T11:33:01;10.70;99.90
1546;DHT22;766;51.502;9.752;2022-09-28T11:35:43;10.80;99.90
1546;DHT22;766;51.502;9.752;2022-09-28T11:38:30;11.10;99.90
1546;DHT22;766;51.502;9.752;2022-09-28T11:41:19;11.60;99.90
1546;DHT22;766;51.502;9.752;2022-09-28T11:44:02;12.20;99.90
1546;DHT22;766;51.502;9.752;2022-09-28T11:46:39;12.70;99.90
1546;DHT22;766;51.502;9.752;2022-09-28T11:49:21;12.50;99.90
1546;DHT22;766;51.502;9.752;2022-09-28T11:51:58;12.40;99.90
1546;DHT22;766;51.502;9.752;2022-09-28T11:54:31;12.60;99.90
1546;DHT22;766;51.502;9.752;2022-09-28T11:57:04;12.60;99.90
1546;DHT22;766;51.502;9.752;2022-09-28T11:59:37;12.50;99.90
1546;DHT22;766;51.502;9.752;2022-09-28T12:02:17;12.50;99.90
1546;DHT22;766;51.502;9.752;2022-09-28T12:04:53;12.30;99.90
1546;DHT22;766;51.502;9.752;2022-09-28T12:07:29;12.40;99.90
1546;DHT22;766;51.502;9.752;2022-09-28T12:10:08;12.40;99.90
1546;DHT22;766;51.502;9.752;2022-09-28T12:12:44;11.80;99.90
1546;DHT22;766;51.502;9.752;2022-09-28T12:15:16;11.70;99.90
1546;DHT22;766;51.502;9.752;2022-09-28T12:17:48;11.30;99.90
1546;DHT22;766;51.502;9.752;2022-09-28T12:20:20;11.00;99.90
1546;DHT22;766;51.502;9.752;2022-09-28T12:23:01;11.00;99.90
1546;DHT22;766;51.502;9.752;2022-09-28T12:25:45;10.90;99.90
1546;DHT22;766;51.502;9.752;2022-09-28T12:28:20;10.90;99.90
1546;DHT22;766;51.502;9.752;2022-09-28T12:30:52;10.70;99.90
1546;DHT22;766;51.502;9.752;2022-09-28T12:33:21;10.80;99.90
1546;DHT22;766;51.502;9.752;2022-09-28T12:36:01;11.00;99.90
1546;DHT22;766;51.502;9.752;2022-09-28T12:38:55;10.90;99.90
1546;DHT22;766;51.502;9.752;2022-09-28T12:41:58;11.00;99.90
1546;DHT22;766;51.502;9.752;2022-09-28T12:44:58;11.10;99.90
1546;DHT22;766;51.502;9.752;2022-09-28T12:48:02;11.20;99.90
1546;DHT22;766;51.502;9.752;2022-09-28T12:50:38;11.50;99.90
1546;DHT22;766;51.502;9.752;2022-09-28T12:53:44;11.60;99.90
1546;DHT22;766;51.502;9.752;2022-09-28T12:56:24;11.30;99.90
1546;DHT22;766;51.502;9.752;2022-09-28T12:59:05;11.20;99.90
1546;DHT22;766;51.502;9.752;2022-09-28T13:01:54;11.00;99.90
1546;DHT22;766;51.502;9.752;2022-09-28T13:04:44;11.10;99.90
1546;DHT22;766;51.502;9.752;2022-09-28T13:07:19;11.20;99.90
1546;DHT22;766;51.502;9.752;2022-09-28T13:09:58;11.40;99.90
1546;DHT22;766;51.502;9.752;2022-09-28T13:12:39;11.30;99.90
1546;DHT22;766;51.502;9.752;2022-09-28T13:15:38;11.90;99.90
1546;DHT22;766;51.502;9.752;2022-09-28T13:18:16;13.20;99.90
1546;DHT22;766;51.502;9.752;2022-09-28T13:21:04;14.20;99.90
1546;DHT22;766;51.502;9.752;2022-09-28T13:23:39;14.60;99.90
1546;DHT22;766;51.502;9.752;2022-09-28T13:26:15;15.10;99.90
1546;DHT22;766;51.502;9.752;2022-09-28T13:28:48;14.90;99.90
1546;DHT22;766;51.502;9.752;2022-09-28T13:31:19;15.30;99.90
1546;DHT22;766;51.502;9.752;2022-09-28T13:33:55;16.00;99.90
1546;DHT22;766;51.502;9.752;2022-09-28T13:36:36;16.60;99.90
1546;DHT22;766;51.502;9.752;2022-09-28T13:39:36;16.70;99.90
1546;DHT22;766;51.502;9.752;2022-09-28T13:42:07;15.60;99.90
1546;DHT22;766;51.502;9.752;2022-09-28T13:45:01;14.50;99.90
1546;DHT22;766;51.502;9.752;2022-09-28T13:47:51;13.90;99.90
1546;DHT22;766;51.502;9.752;2022-09-28T13:50:28;13.40;99.90
1546;DHT22;766;51.502;9.752;2022-09-28T13:53:08;13.20;99.90
1546;DHT22;766;51.502;9.752;2022-09-28T13:55:51;12.90;99.90
1546;DHT22;766;51.502;9.752;2022-09-28T13:58:23;12.60;99.90
1546;DHT22;766;51.502;9.752;2022-09-28T14:00:58;12.50;99.90
1546;DHT22;766;51.502;9.752;2022-09-28T14:03:42;12.40;99.90
1546;DHT22;766;51.502;9.752;2022-09-28T14:06:22;12.50;99.90
1546;DHT22;766;51.502;9.752;2022-09-28T14:12:27;12.50;99.90
1546;DHT22;766;51.502;9.752;2022-09-28T14:14:56;12.30;99.90
1546;DHT22;766;51.502;9.752;2022-09-28T14:20:49;12.30;99.90
1546;DHT22;766;51.502;9.752;2022-09-28T14:23:48;12.10;99.90
1546;DHT22;766;51.502;9.752;2022-09-28T14:27:05;12.20;99.90
1546;DHT22;766;51.502;9.752;2022-09-28T14:29:37;11.90;99.90
1546;DHT22;766;51.502;9.752;2022-09-28T14:32:22;12.00;99.90
1546;DHT22;766;51.502;9.752;2022-09-28T14:34:56;12.00;99.90
1546;DHT22;766;51.502;9.752;2022-09-28T14:37:28;11.90;99.90
1546;DHT22;766;51.502;9.752;2022-09-28T14:40:17;11.70;99.90
1546;DHT22;766;51.502;9.752;2022-09-28T14:43:25;11.60;99.90
1546;DHT22;766;51.502;9.752;2022-09-28T14:49:03;11.40;99.90
1546;DHT22;766;51.502;9.752;2022-09-28T14:51:59;11.40;99.90
1546;DHT22;766;51.502;9.752;2022-09-28T14:54:41;11.40;99.90
1546;DHT22;766;51.502;9.752;2022-09-28T14:57:16;11.50;99.90
1546;DHT22;766;51.502;9.752;2022-09-28T14:59:45;11.70;99.90
1546;DHT22;766;51.502;9.752;2022-09-28T15:02:21;11.70;99.90
1546;DHT22;766;51.502;9.752;2022-09-28T15:04:53;11.70;99.90
1546;DHT22;766;51.502;9.752;2022-09-28T15:07:24;11.70;99.90
1546;DHT22;766;51.502;9.752;2022-09-28T15:09:56;11.40;99.90
1546;DHT22;766;51.502;9.752;2022-09-28T15:12:26;11.30;99.90
1546;DHT22;766;51.502;9.752;2022-09-28T15:14:58;11.30;99.90
1546;DHT22;766;51.502;9.752;2022-09-28T15:17:29;11.20;99.90
1546;DHT22;766;51.502;9.752;2022-09-28T15:20:20;11.20;99.90
1546;DHT22;766;51.502;9.752;2022-09-28T15:22:52;11.10;99.90
1546;DHT22;766;51.502;9.752;2022-09-28T15:25:25;11.10;99.90
1546;DHT22;766;51.502;9.752;2022-09-28T15:27:56;11.10;99.90
1546;DHT22;766;51.502;9.752;2022-09-28T15:30:28;11.10;99.90
1546;DHT22;766;51.502;9.752;2022-09-28T15:32:59;11.10;99.90
1546;DHT22;766;51.502;9.752;2022-09-28T15:35:41;11.00;99.90
1546;DHT22;766;51.502;9.752;2022-09-28T15:38:13;11.20;99.90
1546;DHT22;766;51.502;9.752;2022-09-28T15:40:45;11.20;99.90
1546;DHT22;766;51.502;9.752;2022-09-28T15:43:23;11.20;99.90
1546;DHT22;766;51.502;9.752;2022-09-28T15:45:56;11.20;99.90
1546;DHT22;766;51.502;9.752;2022-09-28T15:48:31;11.20;99.90
1546;DHT22;766;51.502;9.752;2022-09-28T15:51:05;11.20;99.90
1546;DHT22;766;51.502;9.752;2022-09-28T15:53:41;11.20;99.90
1546;DHT22;766;51.502;9.752;2022-09-28T15:56:14;11.00;99.90
1546;DHT22;766;51.502;9.752;2022-09-28T15:58:42;11.00;99.90
1546;DHT22;766;51.502;9.752;2022-09-28T16:01:35;11.00;99.90
1546;DHT22;766;51.502;9.752;2022-09-28T16:04:34;11.10;99.90
1546;DHT22;766;51.502;9.752;2022-09-28T16:07:15;11.00;99.90
1546;DHT22;766;51.502;9.752;2022-09-28T16:10:00;11.00;99.90
1546;DHT22;766;51.502;9.752;2022-09-28T16:12:40;10.80;99.90
1546;DHT22;766;51.502;9.752;2022-09-28T16:15:14;10.70;99.90
1546;DHT22;766;51.502;9.752;2022-09-28T16:17:51;10.60;99.90
1546;DHT22;766;51.502;9.752;2022-09-28T16:20:25;10.50;99.90
1546;DHT22;766;51.502;9.752;2022-09-28T16:22:56;10.40;99.90
1546;DHT22;766;51.502;9.752;2022-09-28T16:25:29;10.40;99.90
1546;DHT22;766;51.502;9.752;2022-09-28T16:28:02;10.40;99.90
1546;DHT22;766;51.502;9.752;2022-09-28T16:30:34;10.30;99.90
1546;DHT22;766;51.502;9.752;2022-09-28T16:33:04;10.40;99.90
1546;DHT22;766;51.502;9.752;2022-09-28T16:35:49;10.40;99.90
1546;DHT22;766;51.502;9.752;2022-09-28T16:38:18;10.30;99.90
1546;DHT22;766;51.502;9.752;2022-09-28T16:40:49;10.20;99.90
1546;DHT22;766;51.502;9.752;2022-09-28T16:43:22;10.20;99.90
1546;DHT22;766;51.502;9.752;2022-09-28T16:45:53;10.10;99.90
1546;DHT22;766;51.502;9.752;2022-09-28T16:48:26;10.10;99.90
1546;DHT22;766;51.502;9.752;2022-09-28T16:50:56;10.20;99.90
1546;DHT22;766;51.502;9.752;2022-09-28T16:53:25;10.10;99.90
1546;DHT22;766;51.502;9.752;2022-09-28T16:56:11;10.10;99.90
1546;DHT22;766;51.502;9.752;2022-09-28T16:58:41;10.10;99.90
1546;DHT22;766;51.502;9.752;2022-09-28T17:01:14;10.00;99.90
1546;DHT22;766;51.502;9.752;2022-09-28T17:03:43;10.00;99.90
1546;DHT22;766;51.502;9.752;2022-09-28T17:06:13;10.10;99.90
1546;DHT22;766;51.502;9.752;2022-09-28T17:08:42;10.00;99.90
1546;DHT22;766;51.502;9.752;2022-09-28T17:11:13;10.00;99.90
1546;DHT22;766;51.502;9.752;2022-09-28T17:13:51;10.00;99.90
1546;DHT22;766;51.502;9.752;2022-09-28T17:16:25;10.00;99.90
1546;DHT22;766;51.502;9.752;2022-09-28T17:19:18;10.00;99.90
1546;DHT22;766;51.502;9.752;2022-09-28T17:21:47;9.90;99.90
1546;DHT22;766;51.502;9.752;2022-09-28T17:24:16;9.90;99.90
1546;DHT22;766;51.502;9.752;2022-09-28T17:26:46;10.00;99.90
1546;DHT22;766;51.502;9.752;2022-09-28T17:29:17;9.90;99.90
1546;DHT22;766;51.502;9.752;2022-09-28T17:31:46;9.90;99.90
1546;DHT22;766;51.502;9.752;2022-09-28T17:34:15;9.90;99.90
1546;DHT22;766;51.502;9.752;2022-09-28T17:36:44;9.90;99.90
1546;DHT22;766;51.502;9.752;2022-09-28T17:39:14;9.90;99.90
1546;DHT22;766;51.502;9.752;2022-09-28T17:41:42;9.80;99.90
1546;DHT22;766;51.502;9.752;2022-09-28T17:44:11;9.70;99.90
1546;DHT22;766;51.502;9.752;2022-09-28T17:46:44;9.60;99.90
1546;DHT22;766;51.502;9.752;2022-09-28T17:49:15;9.50;99.90
1546;DHT22;766;51.502;9.752;2022-09-28T17:51:44;9.40;99.90
1546;DHT22;766;51.502;9.752;2022-09-28T17:54:12;9.20;99.90
